Time,TemperatureF,DewpointF,PressureIn,WindDirection,WindDirectionDegrees,WindSpeedMPH,WindSpeedGustMPH,Humidity,HourlyPrecipIn,Conditions,Clouds,dailyrainin,SoftwareType,DateUTC
2013-05-09 00:00:00,51.0,51.0,30.19,WNW,290,5.0,-999.0,99,-99.99,,,-99.99,,2013-05-09 07:00:00,
2013-05-09 00:21:00,51.0,51.0,30.19,WNW,290,5.0,-999.0,99,-99.99,,,-99.99,,2013-05-09 07:21:00,
2013-05-09 00:31:00,51.0,51.0,30.19,WNW,290,5.0,-999.0,99,-99.99,,,-99.99,,2013-05-09 07:31:00,
2013-05-09 00:42:00,51.0,51.0,30.19,WNW,290,5.0,-999.0,99,-99.99,,,-99.99,,2013-05-09 07:42:00,
2013-05-09 00:52:00,51.0,51.0,30.19,WNW,290,5.0,-999.0,99,-99.99,,,-99.99,,2013-05-09 07:52:00,
2013-05-09 01:00:00,50.0,50.0,30.21,West,260,7.0,-999.0,99,-99.99,,,-99.99,,2013-05-09 08:00:00,
2013-05-09 01:21:00,50.0,50.0,30.21,West,260,7.0,-999.0,99,-99.99,,,-99.99,,2013-05-09 08:21:00,
2013-05-09 01:31:00,50.0,50.0,30.21,West,260,7.0,-999.0,99,-99.99,,,-99.99,,2013-05-09 08:31:00,
2013-05-09 01:41:00,50.0,50.0,30.21,West,260,7.0,-999.0,99,-99.99,,,-99.99,,2013-05-09 08:41:00,
2013-05-09 01:51:00,50.0,50.0,30.21,West,260,7.0,-999.0,99,-99.99,,,-99.99,,2013-05-09 08:51:00,
2013-05-09 02:00:00,50.0,50.0,30.22,NW,310,6.0,-999.0,100,-99.99,,,-99.99,,2013-05-09 09:00:00,
2013-05-09 02:21:00,50.0,50.0,30.22,NW,310,6.0,-999.0,100,-99.99,,,-99.99,,2013-05-09 09:21:00,
2013-05-09 02:32:00,50.0,50.0,30.22,NW,310,6.0,-999.0,100,-99.99,,,-99.99,,2013-05-09 09:32:00,
2013-05-09 02:42:00,50.0,50.0,30.22,NW,310,6.0,-999.0,100,-99.99,,,-99.99,,2013-05-09 09:42:00,
2013-05-09 02:52:00,50.0,50.0,30.22,NW,310,6.0,-999.0,100,-99.99,,,-99.99,,2013-05-09 09:52:00,
2013-05-09 08:00:00,49.0,49.0,30.25,West,260,6.0,-999.0,100,-99.99,,,-99.99,,2013-05-09 15:00:00,
2013-05-09 08:21:00,49.0,49.0,30.25,West,260,6.0,-999.0,100,-99.99,,,-99.99,,2013-05-09 15:21:00,
2013-05-09 08:32:00,49.0,49.0,30.25,West,260,6.0,-999.0,100,-99.99,,,-99.99,,2013-05-09 15:32:00,
2013-05-09 08:42:00,49.0,49.0,30.25,West,260,6.0,-999.0,100,-99.99,,,-99.99,,2013-05-09 15:42:00,
2013-05-09 08:52:00,49.0,49.0,30.25,West,260,6.0,-999.0,100,-99.99,,,-99.99,,2013-05-09 15:52:00,
2013-05-09 09:00:00,50.0,50.0,30.26,NW,310,2.0,-999.0,100,-99.99,,,-99.99,,2013-05-09 16:00:00,
2013-05-09 09:22:00,50.0,50.0,30.26,NW,310,2.0,-999.0,100,-99.99,,,-99.99,,2013-05-09 16:22:00,
2013-05-09 09:32:00,50.0,50.0,30.26,NW,310,2.0,-999.0,100,-99.99,,,-99.99,,2013-05-09 16:32:00,
2013-05-09 09:41:00,50.0,50.0,30.26,NW,310,2.0,-999.0,100,-99.99,,,-99.99,,2013-05-09 16:41:00,
2013-05-09 09:52:00,50.0,50.0,30.26,NW,310,2.0,-999.0,100,-99.99,,,-99.99,,2013-05-09 16:52:00,
2013-05-09 10:00:00,51.0,51.0,30.25,West,270,8.0,-999.0,100,-99.99,,,-99.99,,2013-05-09 17:00:00,
2013-05-09 10:21:00,51.0,51.0,30.25,West,270,8.0,-999.0,100,-99.99,,,-99.99,,2013-05-09 17:21:00,
2013-05-09 10:32:00,51.0,51.0,30.25,West,270,8.0,-999.0,100,-99.99,,,-99.99,,2013-05-09 17:32:00,
2013-05-09 10:41:00,51.0,51.0,30.25,West,270,8.0,-999.0,100,-99.99,,,-99.99,,2013-05-09 17:41:00,
2013-05-09 10:54:00,51.0,51.0,30.25,West,270,8.0,-999.0,100,-99.99,,,-99.99,,2013-05-09 17:54:00,
2013-05-09 11:00:00,50.0,50.0,30.26,West,280,11.0,-999.0,100,-99.99,,,-99.99,,2013-05-09 18:00:00,
2013-05-09 11:21:00,50.0,50.0,30.26,West,280,11.0,-999.0,100,-99.99,,,-99.99,,2013-05-09 18:21:00,
2013-05-09 11:31:00,50.0,50.0,30.26,West,280,11.0,-999.0,100,-99.99,,,-99.99,,2013-05-09 18:31:00,
2013-05-09 11:41:00,50.0,50.0,30.26,West,280,11.0,-999.0,100,-99.99,,,-99.99,,2013-05-09 18:41:00,
2013-05-09 11:52:00,50.0,50.0,30.26,West,280,11.0,-999.0,100,-99.99,,,-99.99,,2013-05-09 18:52:00,
2013-05-09 12:00:00,51.0,51.0,30.26,WNW,290,13.0,-999.0,99,-99.99,,,-99.99,,2013-05-09 19:00:00,
2013-05-09 12:21:00,51.0,51.0,30.26,WNW,290,13.0,-999.0,99,-99.99,,,-99.99,,2013-05-09 19:21:00,
2013-05-09 12:31:00,51.0,51.0,30.26,WNW,290,13.0,-999.0,99,-99.99,,,-99.99,,2013-05-09 19:31:00,
2013-05-09 12:41:00,51.0,51.0,30.26,WNW,290,13.0,-999.0,99,-99.99,,,-99.99,,2013-05-09 19:41:00,
2013-05-09 12:52:00,51.0,51.0,30.26,WNW,290,13.0,-999.0,99,-99.99,,,-99.99,,2013-05-09 19:52:00,
2013-05-09 13:00:00,52.0,51.0,30.26,West,280,11.0,-999.0,98,-99.99,,,-99.99,,2013-05-09 20:00:00,
2013-05-09 13:21:00,52.0,51.0,30.26,West,280,11.0,-999.0,98,-99.99,,,-99.99,,2013-05-09 20:21:00,
2013-05-09 13:31:00,52.0,51.0,30.26,West,280,11.0,-999.0,98,-99.99,,,-99.99,,2013-05-09 20:31:00,
2013-05-09 13:42:00,52.0,51.0,30.26,West,280,11.0,-999.0,98,-99.99,,,-99.99,,2013-05-09 20:42:00,
2013-05-09 13:52:00,52.0,51.0,30.26,West,280,11.0,-999.0,98,-99.99,,,-99.99,,2013-05-09 20:52:00,
2013-05-09 14:00:00,52.0,50.0,30.26,West,280,13.0,-999.0,93,-99.99,,,-99.99,,2013-05-09 21:00:00,
2013-05-09 14:22:00,52.0,50.0,30.26,West,280,13.0,-999.0,93,-99.99,,,-99.99,,2013-05-09 21:22:00,
2013-05-09 14:32:00,52.0,50.0,30.26,West,280,13.0,-999.0,93,-99.99,,,-99.99,,2013-05-09 21:32:00,
2013-05-09 14:42:00,52.0,50.0,30.26,West,280,13.0,-999.0,93,-99.99,,,-99.99,,2013-05-09 21:42:00,
2013-05-09 14:52:00,52.0,50.0,30.26,West,280,13.0,-999.0,93,-99.99,,,-99.99,,2013-05-09 21:52:00,
2013-05-09 15:00:00,51.0,49.0,30.25,West,280,10.0,-999.0,90,-99.99,,,-99.99,,2013-05-09 22:00:00,
2013-05-09 15:22:00,51.0,49.0,30.25,West,280,10.0,-999.0,90,-99.99,,,-99.99,,2013-05-09 22:22:00,
2013-05-09 15:32:00,51.0,49.0,30.25,West,280,10.0,-999.0,90,-99.99,,,-99.99,,2013-05-09 22:32:00,
2013-05-09 15:42:00,51.0,49.0,30.25,West,280,10.0,-999.0,90,-99.99,,,-99.99,,2013-05-09 22:42:00,
2013-05-09 15:52:00,51.0,49.0,30.25,West,280,10.0,-999.0,90,-99.99,,,-99.99,,2013-05-09 22:52:00,
2013-05-09 16:00:00,52.0,50.0,30.24,West,260,9.0,-999.0,91,-99.99,,,-99.99,,2013-05-09 23:00:00,
2013-05-09 16:21:00,52.0,50.0,30.24,West,260,9.0,-999.0,91,-99.99,,,-99.99,,2013-05-09 23:21:00,
2013-05-09 16:32:00,52.0,50.0,30.24,West,260,9.0,-999.0,91,-99.99,,,-99.99,,2013-05-09 23:32:00,
2013-05-09 16:42:00,52.0,50.0,30.24,West,260,9.0,-999.0,91,-99.99,,,-99.99,,2013-05-09 23:42:00,
2013-05-09 16:52:00,52.0,50.0,30.24,West,260,9.0,-999.0,91,-99.99,,,-99.99,,2013-05-09 23:52:00,
2013-05-09 17:00:00,53.0,50.0,30.23,WSW,250,10.0,-999.0,89,-99.99,,,-99.99,,2013-05-10 00:00:00,
2013-05-09 17:21:00,53.0,50.0,30.23,WSW,250,10.0,-999.0,89,-99.99,,,-99.99,,2013-05-10 00:21:00,
2013-05-09 17:31:00,53.0,50.0,30.23,WSW,250,10.0,-999.0,89,-99.99,,,-99.99,,2013-05-10 00:31:00,
2013-05-09 17:42:00,53.0,50.0,30.23,WSW,250,10.0,-999.0,89,-99.99,,,-99.99,,2013-05-10 00:42:00,
2013-05-09 17:51:00,53.0,50.0,30.23,WSW,250,10.0,-999.0,89,-99.99,,,-99.99,,2013-05-10 00:51:00,
2013-05-09 18:00:00,54.0,49.0,30.21,WSW,250,9.0,-999.0,85,-99.99,,,-99.99,,2013-05-10 01:00:00,
2013-05-09 18:21:00,54.0,49.0,30.21,WSW,250,9.0,-999.0,85,-99.99,,,-99.99,,2013-05-10 01:21:00,
2013-05-09 18:31:00,54.0,49.0,30.21,WSW,250,9.0,-999.0,85,-99.99,,,-99.99,,2013-05-10 01:31:00,
2013-05-09 18:41:00,54.0,49.0,30.21,WSW,250,9.0,-999.0,85,-99.99,,,-99.99,,2013-05-10 01:41:00,
2013-05-09 18:52:00,54.0,49.0,30.21,WSW,250,9.0,-999.0,85,-99.99,,,-99.99,,2013-05-10 01:52:00,
2013-05-09 19:00:00,54.0,50.0,30.20,West,270,7.0,-999.0,85,-99.99,,,-99.99,,2013-05-10 02:00:00,
2013-05-09 19:21:00,54.0,50.0,30.20,West,270,7.0,-999.0,85,-99.99,,,-99.99,,2013-05-10 02:21:00,
2013-05-09 19:31:00,54.0,50.0,30.20,West,270,7.0,-999.0,85,-99.99,,,-99.99,,2013-05-10 02:31:00,
2013-05-09 19:42:00,54.0,50.0,30.20,West,270,7.0,-999.0,85,-99.99,,,-99.99,,2013-05-10 02:42:00,
2013-05-09 19:52:00,54.0,50.0,30.20,West,270,7.0,-999.0,85,-99.99,,,-99.99,,2013-05-10 02:52:00,
2013-05-09 20:00:00,54.0,51.0,30.19,West,260,5.0,-999.0,88,-99.99,,,-99.99,,2013-05-10 03:00:00,
2013-05-09 20:21:00,54.0,51.0,30.19,West,260,5.0,-999.0,88,-99.99,,,-99.99,,2013-05-10 03:21:00,
2013-05-09 20:32:00,54.0,51.0,30.19,West,260,5.0,-999.0,88,-99.99,,,-99.99,,2013-05-10 03:32:00,
2013-05-09 20:42:00,54.0,51.0,30.19,West,260,5.0,-999.0,88,-99.99,,,-99.99,,2013-05-10 03:42:00,
2013-05-09 20:52:00,54.0,51.0,30.19,West,260,5.0,-999.0,88,-99.99,,,-99.99,,2013-05-10 03:52:00,
2013-05-09 21:00:00,53.0,52.0,30.19,SW,230,1.0,-999.0,96,-99.99,,,-99.99,,2013-05-10 04:00:00,
2013-05-09 21:22:00,53.0,52.0,30.19,SW,230,1.0,-999.0,96,-99.99,,,-99.99,,2013-05-10 04:22:00,
2013-05-09 21:33:00,53.0,52.0,30.19,SW,230,1.0,-999.0,96,-99.99,,,-99.99,,2013-05-10 04:33:00,
2013-05-09 21:42:00,53.0,52.0,30.19,SW,230,1.0,-999.0,96,-99.99,,,-99.99,,2013-05-10 04:42:00,
2013-05-09 21:52:00,53.0,52.0,30.19,SW,230,1.0,-999.0,96,-99.99,,,-99.99,,2013-05-10 04:52:00,
2013-05-09 22:00:00,52.0,52.0,30.19,SSW,210,1.0,-999.0,99,-99.99,,,-99.99,,2013-05-10 05:00:00,
2013-05-09 22:21:00,52.0,52.0,30.19,SSW,210,1.0,-999.0,99,-99.99,,,-99.99,,2013-05-10 05:21:00,
2013-05-09 22:32:00,52.0,52.0,30.19,SSW,210,1.0,-999.0,99,-99.99,,,-99.99,,2013-05-10 05:32:00,
2013-05-09 22:42:00,52.0,52.0,30.19,SSW,210,1.0,-999.0,99,-99.99,,,-99.99,,2013-05-10 05:42:00,
2013-05-09 22:52:00,52.0,52.0,30.19,SSW,210,1.0,-999.0,99,-99.99,,,-99.99,,2013-05-10 05:52:00,
2013-05-09 23:00:00,51.0,51.0,30.19,North,0,0.0,-999.0,100,-99.99,,,-99.99,,2013-05-10 06:00:00,
2013-05-09 23:21:00,51.0,51.0,30.19,North,0,0.0,-999.0,100,-99.99,,,-99.99,,2013-05-10 06:21:00,
2013-05-09 23:32:00,51.0,51.0,30.19,North,0,0.0,-999.0,100,-99.99,,,-99.99,,2013-05-10 06:32:00,
2013-05-09 23:41:00,51.0,51.0,30.19,North,0,0.0,-999.0,100,-99.99,,,-99.99,,2013-05-10 06:41:00,
2013-05-09 23:51:00,51.0,51.0,30.19,North,0,0.0,-999.0,100,-99.99,,,-99.99,,2013-05-10 06:51:00,